createdAt,value
2019-05-03T00:00:45.366Z,0.00
2019-05-03T00:01:45.289Z,0.00
2019-05-03T00:02:45.284Z,0.00
2019-05-03T00:03:45.284Z,0.00
2019-05-03T00:04:45.314Z,0.00
2019-05-03T00:05:45.281Z,0.00
2019-05-03T00:06:45.283Z,0.00
2019-05-03T00:07:45.277Z,0.00
2019-05-03T00:08:45.277Z,0.00
2019-05-03T00:09:45.300Z,0.00
2019-05-03T00:10:45.273Z,0.00
2019-05-03T00:11:45.274Z,0.00
2019-05-03T00:12:45.267Z,0.00
2019-05-03T00:13:45.266Z,0.00
2019-05-03T00:14:45.311Z,0.00
2019-05-03T00:15:45.272Z,0.00
2019-05-03T00:16:45.290Z,0.00
2019-05-03T00:17:45.261Z,0.00
2019-05-03T00:18:45.258Z,0.00
2019-05-03T00:19:45.415Z,0.00
2019-05-03T00:20:45.290Z,0.00
2019-05-03T00:21:45.250Z,0.00
2019-05-03T00:22:45.255Z,0.00
2019-05-03T00:23:45.255Z,0.00
2019-05-03T00:24:45.250Z,0.00
2019-05-03T00:25:45.273Z,0.00
2019-05-03T00:26:45.247Z,0.00
2019-05-03T00:27:45.271Z,0.00
2019-05-03T00:28:45.243Z,0.00
2019-05-03T00:29:46.075Z,0.00
2019-05-03T00:30:45.240Z,0.00
2019-05-03T00:31:45.264Z,0.00
2019-05-03T00:32:45.236Z,0.00
2019-05-03T00:33:45.229Z,0.00
2019-05-03T00:34:46.574Z,0.00
2019-05-03T00:35:45.237Z,0.00
2019-05-03T00:36:45.255Z,0.00
2019-05-03T00:37:45.233Z,0.00
2019-05-03T00:38:45.224Z,0.00
2019-05-03T00:39:45.220Z,0.00
2019-05-03T00:40:45.220Z,0.00
2019-05-03T00:41:45.247Z,0.00
2019-05-03T00:42:45.214Z,0.00
2019-05-03T00:43:45.214Z,0.00
2019-05-03T00:44:45.218Z,0.00
2019-05-03T00:45:45.212Z,0.00
2019-05-03T00:46:45.234Z,0.00
2019-05-03T00:47:45.214Z,0.00
2019-05-03T00:48:45.205Z,0.00
2019-05-03T00:49:45.207Z,0.00
2019-05-03T00:50:45.206Z,0.00
2019-05-03T00:51:45.229Z,0.00
2019-05-03T00:52:45.195Z,0.00
2019-05-03T00:53:45.202Z,0.00
2019-05-03T00:54:45.206Z,0.00
2019-05-03T00:55:45.194Z,0.00
2019-05-03T00:56:45.222Z,0.00
2019-05-03T00:57:45.217Z,0.00
2019-05-03T00:58:45.183Z,0.00
2019-05-03T00:59:45.186Z,0.00
2019-05-03T01:00:45.187Z,0.00
2019-05-03T01:01:45.183Z,0.00
2019-05-03T01:02:45.206Z,0.00
2019-05-03T01:03:45.181Z,0.00
2019-05-03T01:04:45.175Z,0.00
2019-05-03T01:05:45.176Z,0.00
2019-05-03T01:06:45.171Z,0.00
2019-05-03T01:07:45.199Z,0.00
2019-05-03T01:08:45.175Z,0.00
2019-05-03T01:09:45.170Z,0.00
2019-05-03T01:10:45.164Z,0.00
2019-05-03T01:11:45.164Z,0.00
2019-05-03T01:12:45.189Z,0.00
2019-05-03T01:13:45.160Z,0.00
2019-05-03T01:14:45.160Z,0.00
2019-05-03T01:15:45.156Z,0.00
2019-05-03T01:16:45.559Z,0.00
2019-05-03T01:17:45.179Z,0.00
2019-05-03T01:18:45.158Z,0.00
2019-05-03T01:19:45.148Z,0.00
2019-05-03T01:20:45.153Z,0.00
2019-05-03T01:21:45.153Z,0.00
2019-05-03T01:22:45.171Z,0.00
2019-05-03T01:23:45.141Z,0.00
2019-05-03T01:24:45.141Z,0.00
2019-05-03T01:25:45.141Z,0.00
2019-05-03T01:26:45.135Z,0.00
2019-05-03T01:27:45.165Z,0.00
2019-05-03T01:28:45.131Z,0.00
2019-05-03T01:29:45.130Z,0.00
2019-05-03T01:30:45.132Z,0.00
2019-05-03T01:31:45.129Z,0.00
2019-05-03T01:32:45.154Z,0.00
2019-05-03T01:33:45.152Z,0.00
2019-05-03T01:34:45.121Z,0.00
2019-05-03T01:35:45.121Z,0.00
2019-05-03T01:36:45.101Z,0.00
2019-05-03T01:37:45.127Z,0.00
2019-05-03T01:38:45.142Z,0.00
2019-05-03T01:39:45.111Z,0.00
2019-05-03T01:40:45.112Z,0.00
2019-05-03T01:41:45.105Z,0.00
2019-05-03T01:42:45.110Z,0.00
2019-05-03T01:43:45.134Z,0.00
2019-05-03T01:44:45.102Z,0.00
2019-05-03T01:45:45.103Z,0.00
2019-05-03T01:46:45.102Z,0.00
2019-05-03T01:47:45.095Z,0.00
2019-05-03T01:48:45.125Z,0.00
2019-05-03T01:49:45.097Z,0.00
2019-05-03T01:50:45.099Z,0.00
2019-05-03T01:51:45.092Z,0.00
2019-05-03T01:52:45.093Z,0.00
2019-05-03T01:53:45.107Z,0.00
2019-05-03T01:54:45.119Z,0.00
2019-05-03T01:55:46.518Z,0.00
2019-05-03T01:56:55.940Z,0.00
2019-05-03T01:57:45.080Z,0.00
2019-05-03T01:58:45.084Z,0.00
2019-05-03T01:59:45.097Z,0.00
2019-05-03T02:00:45.072Z,0.00
2019-05-03T02:01:45.072Z,0.00
2019-05-03T02:02:45.064Z,0.00
2019-05-03T02:03:45.108Z,0.00
2019-05-03T02:04:45.065Z,0.00
2019-05-03T02:05:45.064Z,0.00
2019-05-03T02:06:45.061Z,0.00
2019-05-03T02:07:45.069Z,0.00
2019-05-03T02:08:45.100Z,0.00
2019-05-03T02:09:45.082Z,0.00
2019-05-03T02:10:45.053Z,0.00
2019-05-03T02:11:45.065Z,0.00
2019-05-03T02:12:45.049Z,0.00
2019-05-03T02:13:45.054Z,0.00
2019-05-03T02:14:45.073Z,0.00
2019-05-03T02:15:45.043Z,0.00
2019-05-03T02:16:45.042Z,0.00
2019-05-03T02:17:45.188Z,0.00
2019-05-03T02:18:45.070Z,0.00
2019-05-03T02:19:45.039Z,0.00
2019-05-03T02:20:46.962Z,0.00
2019-05-03T02:21:45.031Z,0.00
2019-05-03T02:22:45.036Z,0.00
2019-05-03T02:23:45.059Z,0.00
2019-05-03T02:24:45.027Z,0.00
2019-05-03T02:25:55.642Z,0.00
2019-05-03T02:26:45.026Z,0.00
2019-05-03T02:27:45.019Z,0.00
2019-05-03T02:28:45.051Z,0.00
2019-05-03T02:29:45.015Z,0.00
2019-05-03T02:30:45.017Z,0.00
2019-05-03T02:31:45.019Z,0.00
2019-05-03T02:32:45.020Z,0.00
2019-05-03T02:33:45.040Z,0.00
2019-05-03T02:34:45.014Z,0.00
2019-05-03T02:35:45.004Z,0.00
2019-05-03T02:36:45.003Z,0.00
2019-05-03T02:37:45.009Z,0.00
2019-05-03T02:38:45.024Z,0.00
2019-05-03T02:39:44.997Z,0.00
2019-05-03T02:40:44.997Z,0.00
2019-05-03T02:41:48.363Z,0.00
2019-05-03T02:42:46.418Z,0.00
2019-05-03T02:43:45.390Z,0.00
2019-05-03T02:44:46.137Z,0.00
2019-05-03T02:45:45.648Z,0.00
2019-05-03T02:46:45.407Z,0.00
2019-05-03T02:47:47.186Z,0.00
2019-05-03T02:48:45.721Z,0.00
2019-05-03T02:49:45.583Z,0.00
2019-05-03T02:50:45.363Z,0.00
2019-05-03T02:51:46.059Z,0.00
2019-05-03T02:52:45.733Z,0.00
2019-05-03T02:53:45.718Z,0.00
2019-05-03T02:54:46.487Z,0.00
2019-05-03T02:55:45.528Z,0.00
2019-05-03T02:56:46.019Z,0.00
2019-05-03T02:57:46.648Z,0.00
2019-05-03T02:58:46.061Z,0.00
2019-05-03T02:59:45.290Z,0.00
2019-05-03T03:00:45.510Z,0.00
2019-05-03T03:01:46.523Z,0.00
2019-05-03T03:02:45.724Z,0.00
2019-05-03T03:03:45.705Z,0.00
2019-05-03T03:04:45.406Z,0.00
2019-05-03T03:05:46.409Z,0.00
2019-05-03T03:06:45.421Z,0.00
2019-05-03T03:07:45.943Z,0.00
2019-05-03T03:08:45.578Z,0.00
2019-05-03T03:09:45.328Z,0.00
2019-05-03T03:10:45.540Z,0.00
2019-05-03T03:11:45.782Z,0.00
2019-05-03T03:12:46.518Z,0.00
2019-05-03T03:13:45.709Z,0.00
2019-05-03T03:14:45.539Z,0.00
2019-05-03T03:15:45.818Z,0.00
2019-05-03T03:16:45.546Z,0.00
2019-05-03T03:17:45.727Z,4.00
2019-05-03T03:18:45.618Z,4.00
2019-05-03T03:19:46.188Z,4.00
2019-05-03T03:20:45.028Z,4.00
2019-05-03T03:21:46.662Z,4.00
2019-05-03T03:22:45.537Z,0.00
2019-05-03T03:23:46.059Z,0.00
2019-05-03T03:24:45.776Z,4.00
2019-05-03T03:25:46.228Z,4.00
2019-05-03T03:26:47.280Z,4.00
2019-05-03T03:27:45.290Z,4.00
2019-05-03T03:28:46.234Z,4.00
2019-05-03T03:29:45.846Z,8.00
2019-05-03T03:30:48.629Z,4.00
2019-05-03T03:31:48.395Z,4.00
2019-05-03T03:32:48.212Z,8.00
2019-05-03T03:33:47.492Z,8.00
2019-05-03T03:34:54.538Z,8.00
2019-05-03T03:35:48.824Z,12.00
2019-05-03T03:36:58.909Z,16.00
2019-05-03T03:37:46.229Z,16.00
2019-05-03T03:38:45.852Z,16.00
2019-05-03T03:39:45.802Z,16.00
2019-05-03T03:40:45.364Z,20.00
2019-05-03T03:41:45.380Z,24.00
2019-05-03T03:42:45.078Z,24.00
2019-05-03T03:43:46.279Z,32.00
2019-05-03T03:44:45.351Z,40.00
2019-05-03T03:45:45.518Z,56.00
2019-05-03T03:46:45.415Z,64.00
2019-05-03T03:47:46.361Z,64.00
2019-05-03T03:48:46.080Z,68.00
2019-05-03T03:49:46.362Z,64.00
2019-05-03T03:50:45.720Z,68.00
2019-05-03T03:51:45.545Z,72.00
2019-05-03T03:52:45.280Z,76.00
2019-05-03T03:53:46.492Z,76.00
2019-05-03T03:54:45.713Z,76.00
2019-05-03T03:55:45.849Z,76.00
2019-05-03T03:56:58.474Z,76.00
2019-05-03T03:57:46.850Z,88.00
2019-05-03T03:58:46.467Z,88.00
2019-05-03T03:59:45.521Z,92.00
2019-05-03T04:00:46.408Z,84.00
2019-05-03T04:01:45.625Z,76.00
2019-05-03T04:02:45.853Z,84.00
2019-05-03T04:03:45.953Z,96.00
2019-05-03T04:04:45.120Z,100.00
2019-05-03T04:05:46.750Z,120.00
2019-05-03T04:06:46.571Z,120.00
2019-05-03T04:07:46.396Z,124.00
2019-05-03T04:08:45.398Z,132.00
2019-05-03T04:09:45.655Z,136.00
2019-05-03T04:10:46.346Z,140.00
2019-05-03T04:11:46.316Z,144.00
2019-05-03T04:12:45.460Z,152.00
2019-05-03T04:13:45.295Z,168.00
2019-05-03T04:14:45.302Z,196.00
2019-05-03T04:15:45.386Z,192.00
2019-05-03T04:16:45.479Z,168.00
2019-05-03T04:17:45.700Z,180.00
2019-05-03T04:18:45.573Z,184.00
2019-05-03T04:19:45.507Z,224.00
2019-05-03T04:20:45.834Z,300.00
2019-05-03T04:21:45.267Z,412.00
2019-05-03T04:22:45.305Z,472.00
2019-05-03T04:23:45.840Z,512.00
2019-05-03T04:24:45.956Z,512.00
2019-05-03T04:25:45.128Z,492.00
2019-05-03T04:26:45.339Z,428.00
2019-05-03T04:27:45.565Z,416.00
2019-05-03T04:28:45.338Z,404.00
2019-05-03T04:29:45.359Z,508.00
2019-05-03T04:30:45.976Z,600.00
2019-05-03T04:31:45.715Z,628.00
2019-05-03T04:32:45.491Z,704.00
2019-05-03T04:33:45.169Z,864.00
2019-05-03T04:34:45.556Z,1160.00
2019-05-03T04:35:46.529Z,1668.00
2019-05-03T04:36:46.221Z,1624.00
2019-05-03T04:37:45.386Z,2300.00
2019-05-03T04:38:45.349Z,2760.00
2019-05-03T04:39:45.645Z,2672.00
2019-05-03T04:40:45.402Z,2460.00
2019-05-03T04:41:45.299Z,2124.00
2019-05-03T04:42:46.444Z,1948.00
2019-05-03T04:43:46.015Z,1948.00
2019-05-03T04:44:45.701Z,1816.00
2019-05-03T04:45:45.599Z,1620.00
2019-05-03T04:46:46.508Z,1524.00
2019-05-03T04:47:46.386Z,1160.00
2019-05-03T04:48:44.999Z,948.00
2019-05-03T04:49:46.200Z,1128.00
2019-05-03T04:50:45.665Z,1456.00
2019-05-03T04:51:46.553Z,1784.00
2019-05-03T04:52:46.273Z,2632.00
2019-05-03T04:53:45.484Z,4400.00
2019-05-03T04:54:45.273Z,5504.00
2019-05-03T04:55:46.842Z,5028.00
2019-05-03T04:56:46.407Z,3788.00
2019-05-03T04:57:46.832Z,3276.00
2019-05-03T04:58:45.862Z,2884.00
2019-05-03T04:59:45.197Z,2736.00
2019-05-03T05:00:46.456Z,2960.00
2019-05-03T05:01:46.104Z,3736.00
2019-05-03T05:02:45.722Z,4988.00
2019-05-03T05:03:45.694Z,6016.00
2019-05-03T05:04:46.273Z,6120.00
2019-05-03T05:05:45.350Z,4732.00
2019-05-03T05:06:45.137Z,4044.00
2019-05-03T05:07:45.651Z,3636.00
2019-05-03T05:08:46.047Z,3488.00
2019-05-03T05:09:45.623Z,3868.00
2019-05-03T05:10:45.521Z,4304.00
2019-05-03T05:11:45.790Z,4860.00
2019-05-03T05:12:45.754Z,4436.00
2019-05-03T05:13:45.767Z,3940.00
2019-05-03T05:14:45.675Z,4016.00
2019-05-03T05:15:45.980Z,4244.00
2019-05-03T05:16:46.554Z,4236.00
2019-05-03T05:17:45.875Z,4036.00
2019-05-03T05:18:45.673Z,4540.00
2019-05-03T05:19:44.654Z,5000.00
2019-05-03T05:20:45.377Z,4924.00
2019-05-03T05:21:44.848Z,5252.00
2019-05-03T05:22:45.433Z,6044.00
2019-05-03T05:23:44.587Z,6496.00
2019-05-03T05:24:45.004Z,5936.00
2019-05-03T05:25:44.656Z,5304.00
2019-05-03T05:26:44.698Z,4356.00
2019-05-03T05:27:49.520Z,3888.00
2019-05-03T05:28:44.830Z,3812.00
2019-05-03T05:29:45.049Z,3344.00
2019-05-03T05:30:44.581Z,3040.00
2019-05-03T05:31:44.700Z,3104.00
2019-05-03T05:32:45.374Z,2796.00
2019-05-03T05:33:44.717Z,2584.00
2019-05-03T05:34:46.043Z,3024.00
2019-05-03T05:35:44.562Z,4028.00
2019-05-03T05:36:45.105Z,4072.00
2019-05-03T05:37:44.585Z,3180.00
2019-05-03T05:38:45.076Z,2488.00
2019-05-03T05:39:44.805Z,2212.00
2019-05-03T05:40:45.112Z,2356.00
2019-05-03T05:41:45.051Z,2792.00
2019-05-03T05:42:45.396Z,3776.00
2019-05-03T05:43:44.736Z,4912.00
2019-05-03T05:44:45.383Z,5180.00
2019-05-03T05:45:45.015Z,4308.00
2019-05-03T05:46:45.417Z,3608.00
2019-05-03T05:47:44.903Z,3900.00
2019-05-03T05:48:45.202Z,5240.00
2019-05-03T05:49:44.553Z,7556.00
2019-05-03T05:50:44.983Z,9180.00
2019-05-03T05:51:44.625Z,10040.00
2019-05-03T05:52:44.903Z,10580.00
2019-05-03T05:53:44.809Z,9936.00
2019-05-03T05:54:45.560Z,10472.00
2019-05-03T05:55:44.802Z,11768.00
2019-05-03T05:56:44.627Z,12792.00
2019-05-03T05:57:44.948Z,13892.00
2019-05-03T05:58:45.029Z,13888.00
2019-05-03T05:59:45.359Z,13496.00
2019-05-03T06:00:44.850Z,12948.00
2019-05-03T06:01:45.604Z,11640.00
2019-05-03T06:02:44.769Z,11624.00
2019-05-03T06:03:44.910Z,11644.00
2019-05-03T06:04:45.226Z,11220.00
2019-05-03T06:05:44.713Z,10888.00
2019-05-03T06:06:45.159Z,10584.00
2019-05-03T06:07:44.491Z,9880.00
2019-05-03T06:08:44.730Z,9752.00
2019-05-03T06:09:44.817Z,9636.00
2019-05-03T06:10:45.108Z,8848.00
2019-05-03T06:11:45.047Z,8008.00
2019-05-03T06:12:45.444Z,7568.00
2019-05-03T06:13:44.540Z,7152.00
2019-05-03T06:14:45.308Z,6592.00
2019-05-03T06:15:44.763Z,6384.00
2019-05-03T06:16:45.194Z,7344.00
2019-05-03T06:17:45.095Z,8492.00
2019-05-03T06:18:45.206Z,8088.00
2019-05-03T06:19:44.907Z,6308.00
2019-05-03T06:20:45.157Z,5980.00
2019-05-03T06:21:44.819Z,6560.00
2019-05-03T06:22:44.833Z,6752.00
2019-05-03T06:23:45.122Z,5852.00
2019-05-03T06:24:45.238Z,5204.00
2019-05-03T06:25:45.381Z,5200.00
2019-05-03T06:26:44.450Z,5556.00
2019-05-03T06:27:44.942Z,6416.00
2019-05-03T06:28:45.387Z,7056.00
2019-05-03T06:29:45.396Z,5904.00
2019-05-03T06:30:45.433Z,4748.00
2019-05-03T06:31:44.689Z,4780.00
2019-05-03T06:32:44.877Z,5668.00
2019-05-03T06:33:45.042Z,5996.00
2019-05-03T06:34:45.515Z,5504.00
2019-05-03T06:35:44.591Z,6244.00
2019-05-03T06:36:44.434Z,7456.00
2019-05-03T06:37:45.895Z,7256.00
2019-05-03T06:38:44.789Z,6648.00
2019-05-03T06:39:45.435Z,6760.00
2019-05-03T06:40:44.792Z,6352.00
2019-05-03T06:41:44.639Z,5408.00
2019-05-03T06:42:52.469Z,5596.00
2019-05-03T06:43:48.395Z,6208.00
2019-05-03T06:44:45.549Z,6532.00
2019-05-03T06:45:49.103Z,6796.00
2019-05-03T06:46:45.698Z,7716.00
2019-05-03T06:47:48.082Z,9392.00
2019-05-03T06:48:44.469Z,10568.00
2019-05-03T06:49:48.294Z,8360.00
2019-05-03T06:50:45.414Z,4980.00
2019-05-03T06:51:45.790Z,3916.00
2019-05-03T06:52:44.632Z,4628.00
2019-05-03T06:53:47.571Z,6196.00
2019-05-03T06:54:44.991Z,8128.00
2019-05-03T06:55:48.236Z,8932.00
2019-05-03T06:56:45.271Z,9772.00
2019-05-03T06:57:45.598Z,11332.00
2019-05-03T06:58:44.871Z,11544.00
2019-05-03T06:59:45.186Z,10768.00
2019-05-03T07:00:45.193Z,11140.00
2019-05-03T07:01:44.819Z,11504.00
2019-05-03T07:02:44.744Z,11352.00
2019-05-03T07:03:44.849Z,9920.00
2019-05-03T07:04:44.986Z,8788.00
2019-05-03T07:05:44.510Z,8360.00
2019-05-03T07:06:45.088Z,7832.00
2019-05-03T07:07:44.475Z,6840.00
2019-05-03T07:08:46.936Z,6300.00
2019-05-03T07:09:44.532Z,6100.00
2019-05-03T07:10:44.560Z,5884.00
2019-05-03T07:11:45.119Z,5892.00
2019-05-03T07:12:45.474Z,5784.00
2019-05-03T07:13:44.977Z,5288.00
2019-05-03T07:14:45.129Z,4744.00
2019-05-03T07:15:45.466Z,4468.00
2019-05-03T07:16:44.458Z,4348.00
2019-05-03T07:17:45.085Z,4168.00
2019-05-03T07:18:45.464Z,3852.00
2019-05-03T07:19:45.891Z,3540.00
2019-05-03T07:20:44.634Z,3352.00
2019-05-03T07:21:44.705Z,3232.00
2019-05-03T07:22:44.508Z,3044.00
2019-05-03T07:23:45.085Z,3108.00
2019-05-03T07:24:45.516Z,3336.00
2019-05-03T07:25:44.767Z,4240.00
2019-05-03T07:26:44.817Z,4876.00
2019-05-03T07:27:45.263Z,5080.00
2019-05-03T07:28:47.815Z,5256.00
2019-05-03T07:29:44.634Z,5840.00
2019-05-03T07:30:45.377Z,5976.00
2019-05-03T07:31:44.742Z,5624.00
2019-05-03T07:32:44.853Z,5120.00
2019-05-03T07:33:44.698Z,4868.00
2019-05-03T07:34:45.292Z,4868.00
2019-05-03T07:35:44.517Z,4996.00
2019-05-03T07:36:44.701Z,5148.00
2019-05-03T07:37:45.080Z,5372.00
2019-05-03T07:38:45.387Z,5664.00
2019-05-03T07:39:45.303Z,5796.00
2019-05-03T07:40:44.611Z,5740.00
2019-05-03T07:41:44.736Z,5516.00
2019-05-03T07:42:44.891Z,5256.00
2019-05-03T07:43:45.071Z,5020.00
2019-05-03T07:44:44.959Z,4848.00
2019-05-03T07:45:44.641Z,4848.00
2019-05-03T07:46:45.147Z,4904.00
2019-05-03T07:47:45.230Z,4980.00
2019-05-03T07:48:45.652Z,5124.00
2019-05-03T07:49:44.808Z,5176.00
2019-05-03T07:50:44.708Z,5084.00
2019-05-03T07:51:44.849Z,5068.00
2019-05-03T07:52:45.129Z,5304.00
2019-05-03T07:53:45.095Z,5612.00
2019-05-03T07:54:45.189Z,5932.00
2019-05-03T07:55:45.690Z,6160.00
2019-05-03T07:56:44.647Z,6316.00
2019-05-03T07:57:45.272Z,6244.00
2019-05-03T07:58:48.889Z,6200.00
2019-05-03T07:59:45.521Z,6272.00
2019-05-03T08:00:44.702Z,6512.00
2019-05-03T08:01:45.568Z,6740.00
2019-05-03T08:02:44.710Z,6668.00
2019-05-03T08:03:45.100Z,6560.00
2019-05-03T08:04:44.488Z,6388.00
2019-05-03T08:05:45.453Z,6252.00
2019-05-03T08:06:44.573Z,6192.00
2019-05-03T08:07:46.180Z,6216.00
2019-05-03T08:08:45.462Z,6352.00
2019-05-03T08:09:45.296Z,6400.00
2019-05-03T08:10:45.017Z,6428.00
2019-05-03T08:11:44.452Z,6520.00
2019-05-03T08:12:45.182Z,6624.00
2019-05-03T08:13:44.632Z,6692.00
2019-05-03T08:14:44.652Z,6828.00
2019-05-03T08:15:45.256Z,6880.00
2019-05-03T08:16:45.614Z,6804.00
2019-05-03T08:17:44.996Z,6964.00
2019-05-03T08:18:45.733Z,7116.00
2019-05-03T08:19:44.733Z,7496.00
2019-05-03T08:20:45.106Z,7932.00
2019-05-03T08:21:45.276Z,8684.00
2019-05-03T08:22:44.791Z,9596.00
2019-05-03T08:23:45.321Z,9700.00
2019-05-03T08:24:44.858Z,9596.00
2019-05-03T08:25:44.610Z,9752.00
2019-05-03T08:26:45.341Z,9964.00
2019-05-03T08:27:44.623Z,9576.00
2019-05-03T08:28:44.521Z,9216.00
2019-05-03T08:29:45.352Z,9256.00
2019-05-03T08:30:44.500Z,9372.00
2019-05-03T08:31:45.454Z,9544.00
2019-05-03T08:32:44.534Z,9676.00
2019-05-03T08:33:44.808Z,9916.00
2019-05-03T08:34:45.281Z,10208.00
2019-05-03T08:35:44.825Z,10124.00
2019-05-03T08:36:45.195Z,9996.00
2019-05-03T08:37:45.283Z,10064.00
2019-05-03T08:38:45.242Z,10440.00
2019-05-03T08:39:44.788Z,10724.00
2019-05-03T08:40:45.512Z,10988.00
2019-05-03T08:41:44.377Z,10080.00
2019-05-03T08:42:44.482Z,9648.00
2019-05-03T08:43:44.631Z,10408.00
2019-05-03T08:44:45.326Z,11060.00
2019-05-03T08:45:44.756Z,12056.00
2019-05-03T08:46:47.206Z,13208.00
2019-05-03T08:47:45.067Z,13072.00
2019-05-03T08:48:45.631Z,12860.00
2019-05-03T08:49:45.027Z,12824.00
2019-05-03T08:50:45.117Z,12728.00
2019-05-03T08:51:44.414Z,12772.00
2019-05-03T08:52:45.170Z,12784.00
2019-05-03T08:53:45.901Z,13016.00
2019-05-03T08:54:44.868Z,13348.00
2019-05-03T08:55:44.973Z,13664.00
2019-05-03T08:56:45.120Z,13472.00
2019-05-03T08:57:44.770Z,13068.00
2019-05-03T08:58:45.075Z,12800.00
2019-05-03T08:59:44.594Z,13328.00
2019-05-03T09:00:45.519Z,14608.00
2019-05-03T09:01:45.437Z,16088.00
2019-05-03T09:02:44.751Z,17600.00
2019-05-03T09:03:45.764Z,18912.00
2019-05-03T09:04:45.887Z,20128.00
2019-05-03T09:05:45.789Z,21120.00
2019-05-03T09:06:44.653Z,21600.00
2019-05-03T09:07:44.720Z,22048.00
2019-05-03T09:08:45.833Z,22464.00
2019-05-03T09:09:45.989Z,23072.00
2019-05-03T09:10:45.995Z,24160.00
2019-05-03T09:11:45.382Z,25696.00
2019-05-03T09:12:44.916Z,28160.00
2019-05-03T09:13:44.991Z,29568.00
2019-05-03T09:14:46.364Z,30656.00
2019-05-03T09:15:44.607Z,31200.00
2019-05-03T09:16:44.739Z,31936.00
2019-05-03T09:17:44.597Z,31488.00
2019-05-03T09:18:45.413Z,31168.00
2019-05-03T09:19:45.334Z,29120.00
2019-05-03T09:20:44.845Z,28352.00
2019-05-03T09:21:45.366Z,28128.00
2019-05-03T09:22:45.356Z,27904.00
2019-05-03T09:23:44.988Z,27392.00
2019-05-03T09:24:45.534Z,27008.00
2019-05-03T09:25:45.823Z,27296.00
2019-05-03T09:26:44.929Z,27424.00
2019-05-03T09:27:44.690Z,27488.00
2019-05-03T09:28:45.459Z,26560.00
2019-05-03T09:29:46.068Z,26048.00
2019-05-03T09:30:44.734Z,25312.00
2019-05-03T09:31:44.669Z,25632.00
2019-05-03T09:32:44.818Z,26592.00
2019-05-03T09:33:45.180Z,27456.00
2019-05-03T09:34:44.493Z,27840.00
2019-05-03T09:35:45.753Z,28416.00
2019-05-03T09:36:44.878Z,29632.00
2019-05-03T09:37:44.915Z,31520.00
2019-05-03T09:38:45.838Z,32672.00
2019-05-03T09:39:44.519Z,32576.00
2019-05-03T09:40:45.360Z,33696.00
2019-05-03T09:41:45.041Z,35040.00
2019-05-03T09:42:44.502Z,37536.00
2019-05-03T09:43:45.009Z,40416.00
2019-05-03T09:44:45.073Z,43008.00
2019-05-03T09:45:45.735Z,46208.00
2019-05-03T09:46:44.647Z,49856.00
2019-05-03T09:47:44.856Z,51136.00
2019-05-03T09:48:45.349Z,51904.00
2019-05-03T09:49:45.354Z,48480.00
2019-05-03T09:50:45.153Z,47456.00
2019-05-03T09:51:44.461Z,49632.00
2019-05-03T09:52:46.836Z,47840.00
2019-05-03T09:53:44.670Z,45760.00
2019-05-03T09:54:45.309Z,45472.00
2019-05-03T09:55:44.855Z,45440.00
2019-05-03T09:56:48.071Z,44992.00
2019-05-03T09:57:44.486Z,45856.00
2019-05-03T09:58:45.988Z,51904.00
2019-05-03T09:59:56.433Z,54304.00
2019-05-03T10:00:44.580Z,51904.00
2019-05-03T10:01:45.654Z,54400.00
2019-05-03T10:02:44.992Z,70080.00
2019-05-03T10:03:45.207Z,59936.00
2019-05-03T10:04:44.614Z,51712.00
2019-05-03T10:05:45.805Z,52288.00
2019-05-03T10:06:45.303Z,71456.00
2019-05-03T10:07:45.587Z,64896.00
2019-05-03T10:08:45.445Z,54336.00
2019-05-03T10:09:45.062Z,63616.00
2019-05-03T10:10:44.041Z,92704.00
2019-05-03T10:11:45.953Z,70432.00
2019-05-03T10:12:44.422Z,50848.00
2019-05-03T10:13:48.327Z,46336.00
2019-05-03T10:14:45.191Z,47488.00
2019-05-03T10:15:45.080Z,42848.00
2019-05-03T10:16:44.911Z,38048.00
2019-05-03T10:17:45.799Z,34912.00
2019-05-03T10:18:45.954Z,31456.00
2019-05-03T10:19:45.166Z,27648.00
2019-05-03T10:20:44.634Z,24480.00
2019-05-03T10:21:44.905Z,22720.00
2019-05-03T10:22:44.111Z,20992.00
2019-05-03T10:23:45.256Z,21632.00
2019-05-03T10:24:45.243Z,23488.00
2019-05-03T10:25:45.513Z,24384.00
2019-05-03T10:26:45.555Z,24288.00
2019-05-03T10:27:45.734Z,23552.00
2019-05-03T10:28:44.155Z,22880.00
2019-05-03T10:29:44.767Z,23168.00
2019-05-03T10:30:45.078Z,26560.00
2019-05-03T10:31:44.955Z,32800.00
2019-05-03T10:32:44.939Z,35456.00
2019-05-03T10:33:45.020Z,31840.00
2019-05-03T10:34:44.118Z,30624.00
2019-05-03T10:35:45.144Z,24576.00
2019-05-03T10:36:44.175Z,24448.00
2019-05-03T10:37:45.323Z,25664.00
2019-05-03T10:38:46.047Z,27168.00
2019-05-03T10:39:45.519Z,26912.00
2019-05-03T10:40:45.228Z,26880.00
2019-05-03T10:41:45.317Z,26880.00
2019-05-03T10:42:44.555Z,26688.00
2019-05-03T10:43:45.171Z,28192.00
2019-05-03T10:44:44.915Z,29568.00
2019-05-03T10:45:45.024Z,28480.00
2019-05-03T10:46:45.218Z,26048.00
2019-05-03T10:47:45.667Z,24672.00
2019-05-03T10:48:45.065Z,24160.00
2019-05-03T10:49:45.741Z,25152.00
2019-05-03T10:50:44.154Z,25696.00
2019-05-03T10:51:45.218Z,25632.00
2019-05-03T10:52:44.619Z,25312.00
2019-05-03T10:53:45.459Z,25760.00
2019-05-03T10:54:45.883Z,26496.00
2019-05-03T10:55:45.068Z,25408.00
2019-05-03T10:56:45.244Z,22208.00
2019-05-03T10:57:44.920Z,19936.00
2019-05-03T10:58:45.305Z,17984.00
2019-05-03T10:59:44.809Z,17344.00
2019-05-03T11:00:50.221Z,16712.00
2019-05-03T11:01:45.217Z,15424.00
2019-05-03T11:02:45.305Z,12752.00
2019-05-03T11:03:45.178Z,12196.00
2019-05-03T11:04:46.144Z,12280.00
2019-05-03T11:05:45.417Z,13352.00
2019-05-03T11:06:45.798Z,14084.00
2019-05-03T11:07:45.166Z,13724.00
2019-05-03T11:08:45.128Z,13428.00
2019-05-03T11:09:49.642Z,14536.00
2019-05-03T11:10:44.156Z,16452.00
2019-05-03T11:11:45.288Z,18944.00
2019-05-03T11:12:44.153Z,19712.00
2019-05-03T11:13:44.171Z,19840.00
2019-05-03T11:14:45.540Z,21504.00
2019-05-03T11:15:44.455Z,23392.00
2019-05-03T11:16:45.970Z,23392.00
2019-05-03T11:17:45.512Z,21216.00
2019-05-03T11:18:45.574Z,18176.00
2019-05-03T11:19:45.475Z,17568.00
2019-05-03T11:20:45.259Z,18368.00
2019-05-03T11:21:45.495Z,19552.00
2019-05-03T11:22:45.263Z,20288.00
2019-05-03T11:23:45.063Z,20032.00
2019-05-03T11:24:45.446Z,18464.00
2019-05-03T11:25:45.192Z,16200.00
2019-05-03T11:26:45.443Z,14348.00
2019-05-03T11:27:44.709Z,14172.00
2019-05-03T11:28:44.888Z,15016.00
2019-05-03T11:29:45.017Z,14992.00
2019-05-03T11:30:53.130Z,13792.00
2019-05-03T11:31:44.580Z,14456.00
2019-05-03T11:32:44.742Z,16240.00
2019-05-03T11:33:45.688Z,16844.00
2019-05-03T11:34:44.929Z,15600.00
2019-05-03T11:35:44.655Z,13800.00
2019-05-03T11:36:45.460Z,15696.00
2019-05-03T11:37:45.436Z,21248.00
2019-05-03T11:38:45.582Z,25920.00
2019-05-03T11:39:45.174Z,26784.00
2019-05-03T11:40:45.506Z,25344.00
2019-05-03T11:41:45.104Z,23392.00
2019-05-03T11:42:44.785Z,22464.00
2019-05-03T11:43:44.430Z,23584.00
2019-05-03T11:44:44.680Z,25376.00
2019-05-03T11:45:44.893Z,22848.00
2019-05-03T11:46:44.546Z,18720.00
2019-05-03T11:47:45.780Z,16388.00
2019-05-03T11:48:45.495Z,14356.00
2019-05-03T11:49:45.376Z,11400.00
2019-05-03T11:50:45.340Z,9220.00
2019-05-03T11:51:44.649Z,8892.00
2019-05-03T11:52:46.777Z,9036.00
2019-05-03T11:53:45.044Z,9904.00
2019-05-03T11:54:45.270Z,12356.00
2019-05-03T11:55:46.373Z,16024.00
2019-05-03T11:56:44.954Z,19968.00
2019-05-03T11:57:44.978Z,22880.00
2019-05-03T11:58:45.679Z,23616.00
2019-05-03T11:59:45.297Z,22368.00
2019-05-03T12:00:45.110Z,21792.00
2019-05-03T12:01:44.942Z,22080.00
2019-05-03T12:02:44.834Z,23264.00
2019-05-03T12:03:45.130Z,24192.00
2019-05-03T12:04:45.858Z,24192.00
2019-05-03T12:05:44.184Z,24544.00
2019-05-03T12:06:45.600Z,25696.00
2019-05-03T12:07:45.547Z,26016.00
2019-05-03T12:08:44.770Z,25216.00
2019-05-03T12:09:45.200Z,26496.00
2019-05-03T12:10:52.369Z,30080.00
2019-05-03T12:11:44.168Z,33536.00
2019-05-03T12:12:44.656Z,34848.00
2019-05-03T12:13:45.647Z,33600.00
2019-05-03T12:14:45.329Z,32224.00
2019-05-03T12:15:44.597Z,32896.00
2019-05-03T12:17:52.029Z,34880.00
2019-05-03T12:18:50.308Z,34176.00
2019-05-03T12:19:47.466Z,31648.00
2019-05-03T12:20:46.517Z,29216.00
2019-05-03T12:21:44.825Z,29216.00